createdAt,value
2022-08-01T00:00:03.038Z,0.00
2022-08-01T00:01:03.432Z,0.00
2022-08-01T00:02:03.414Z,0.00
2022-08-01T00:03:02.762Z,0.00
2022-08-01T00:04:03.152Z,0.00
2022-08-01T00:05:02.907Z,0.00
2022-08-01T00:06:03.205Z,0.00
2022-08-01T00:07:03.527Z,0.00
2022-08-01T00:08:03.938Z,0.00
2022-08-01T00:09:03.627Z,0.00
2022-08-01T00:10:03.949Z,0.00
2022-08-01T00:11:03.638Z,0.00
2022-08-01T00:12:03.151Z,0.00
2022-08-01T00:13:02.777Z,0.00
2022-08-01T00:14:03.157Z,0.00
2022-08-01T00:15:02.847Z,0.00
2022-08-01T00:16:03.153Z,0.00
2022-08-01T00:17:07.221Z,0.00
2022-08-01T00:18:03.778Z,0.00
2022-08-01T00:19:03.194Z,0.00
2022-08-01T00:20:03.771Z,0.00
2022-08-01T00:21:03.343Z,0.00
2022-08-01T00:22:04.179Z,0.00
2022-08-01T00:23:04.073Z,0.00
2022-08-01T00:24:03.464Z,0.00
2022-08-01T00:25:03.677Z,0.00
2022-08-01T00:26:03.989Z,0.00
2022-08-01T00:27:03.302Z,0.00
2022-08-01T00:28:04.163Z,0.00
2022-08-01T00:29:03.044Z,0.00
2022-08-01T00:30:11.449Z,0.00
2022-08-01T00:31:03.148Z,0.00
2022-08-01T00:32:03.875Z,0.00
2022-08-01T00:33:03.172Z,0.00
2022-08-01T00:34:03.805Z,0.00
2022-08-01T00:35:03.485Z,0.00
2022-08-01T00:36:03.384Z,0.00
2022-08-01T00:37:03.768Z,0.00
2022-08-01T00:38:04.052Z,0.00
2022-08-01T00:39:03.620Z,0.00
2022-08-01T00:40:04.106Z,0.00
2022-08-01T00:41:03.730Z,0.00
2022-08-01T00:42:03.370Z,0.00
2022-08-01T00:43:03.371Z,0.00
2022-08-01T00:44:03.144Z,0.00
2022-08-01T00:45:02.849Z,0.00
2022-08-01T00:46:03.209Z,0.00
2022-08-01T00:47:03.410Z,0.00
2022-08-01T00:48:03.318Z,0.00
2022-08-01T00:49:03.791Z,0.00
2022-08-01T00:50:03.632Z,0.00
2022-08-01T00:51:03.390Z,0.00
2022-08-01T00:52:04.209Z,0.00
2022-08-01T00:53:03.666Z,0.00
2022-08-01T00:54:04.022Z,0.00
2022-08-01T00:55:03.868Z,0.00
2022-08-01T00:56:03.951Z,0.00
2022-08-01T00:57:02.916Z,0.00
2022-08-01T00:58:06.111Z,0.00
2022-08-01T00:59:03.133Z,0.00
2022-08-01T01:00:03.488Z,0.00
2022-08-01T01:01:03.311Z,0.00
2022-08-01T01:02:03.837Z,0.00
2022-08-01T01:03:03.242Z,0.00
2022-08-01T01:04:08.311Z,0.00
2022-08-01T01:05:03.285Z,0.00
2022-08-01T01:06:03.670Z,0.00
2022-08-01T01:07:04.071Z,0.00
2022-08-01T01:08:03.794Z,0.00
2022-08-01T01:09:04.165Z,0.00
2022-08-01T01:10:03.745Z,0.00
2022-08-01T01:11:04.107Z,0.00
2022-08-01T01:12:03.918Z,0.00
2022-08-01T01:13:03.128Z,0.00
2022-08-01T01:14:03.501Z,0.00
2022-08-01T01:15:03.596Z,0.00
2022-08-01T01:16:03.191Z,0.00
2022-08-01T01:17:04.251Z,0.00
2022-08-01T01:18:03.915Z,0.00
2022-08-01T01:19:04.201Z,0.00
2022-08-01T01:20:04.041Z,0.00
2022-08-01T01:21:03.757Z,0.00
2022-08-01T01:22:04.334Z,0.00
2022-08-01T01:23:04.515Z,0.00
2022-08-01T01:24:04.214Z,0.00
2022-08-01T01:25:04.496Z,0.00
2022-08-01T01:26:04.096Z,0.00
2022-08-01T01:27:04.329Z,0.00
2022-08-01T01:28:04.172Z,0.00
2022-08-01T01:29:04.482Z,0.00
2022-08-01T01:30:04.262Z,0.00
2022-08-01T01:31:04.239Z,0.00
2022-08-01T01:32:04.103Z,0.00
2022-08-01T01:33:03.750Z,0.00
2022-08-01T01:34:03.590Z,0.00
2022-08-01T01:35:03.190Z,0.00
2022-08-01T01:36:03.665Z,0.00
2022-08-01T01:37:04.002Z,0.00
2022-08-01T01:38:03.691Z,0.00
2022-08-01T01:39:03.993Z,0.00
2022-08-01T01:40:03.873Z,0.00
2022-08-01T01:41:03.852Z,0.00
2022-08-01T01:42:04.392Z,0.00
2022-08-01T01:43:04.014Z,0.00
2022-08-01T01:44:03.651Z,0.00
2022-08-01T01:45:04.007Z,0.00
2022-08-01T01:46:03.960Z,0.00
2022-08-01T01:47:04.010Z,0.00
2022-08-01T01:48:04.345Z,0.00
2022-08-01T01:49:03.942Z,0.00
2022-08-01T01:50:04.308Z,0.00
2022-08-01T01:51:03.892Z,0.00
2022-08-01T01:52:04.117Z,0.00
2022-08-01T01:53:03.829Z,0.00
2022-08-01T01:54:03.480Z,0.00
2022-08-01T01:55:03.810Z,0.00
2022-08-01T01:56:03.844Z,0.00
2022-08-01T01:57:04.212Z,0.00
2022-08-01T01:58:03.729Z,0.00
2022-08-01T01:59:03.941Z,0.00
2022-08-01T02:00:03.590Z,0.00
2022-08-01T02:01:04.231Z,0.00
2022-08-01T02:02:05.948Z,0.00
2022-08-01T02:03:03.462Z,0.00
2022-08-01T02:04:03.169Z,0.00
2022-08-01T02:05:03.459Z,0.00
2022-08-01T02:06:03.023Z,0.00
2022-08-01T02:07:04.213Z,0.00
2022-08-01T02:08:03.891Z,0.00
2022-08-01T02:09:04.235Z,0.00
2022-08-01T02:10:03.753Z,0.00
2022-08-01T02:11:04.105Z,0.00
2022-08-01T02:12:08.924Z,0.00
2022-08-01T02:13:03.797Z,0.00
2022-08-01T02:14:04.318Z,0.00
2022-08-01T02:15:04.012Z,0.00
2022-08-01T02:16:04.093Z,0.00
2022-08-01T02:17:04.078Z,0.00
2022-08-01T02:18:04.021Z,0.00
2022-08-01T02:19:03.551Z,0.00
2022-08-01T02:20:03.906Z,0.00
2022-08-01T02:21:03.546Z,0.00
2022-08-01T02:22:04.815Z,0.00
2022-08-01T02:23:04.441Z,0.00
2022-08-01T02:24:05.942Z,0.00
2022-08-01T02:25:03.883Z,0.00
2022-08-01T02:26:10.395Z,0.00
2022-08-01T02:27:04.139Z,0.00
2022-08-01T02:28:04.229Z,0.00
2022-08-01T02:29:04.517Z,0.00
2022-08-01T02:30:04.045Z,0.00
2022-08-01T02:31:04.223Z,0.00
2022-08-01T02:32:03.832Z,0.00
2022-08-01T02:33:04.069Z,0.00
2022-08-01T02:34:03.662Z,0.00
2022-08-01T02:35:03.862Z,0.00
2022-08-01T02:36:30.094Z,0.00
2022-08-01T02:37:03.840Z,0.00
2022-08-01T02:38:04.207Z,0.00
2022-08-01T02:39:03.904Z,0.00
2022-08-01T02:40:04.267Z,0.00
2022-08-01T02:41:03.820Z,0.00
2022-08-01T02:42:04.267Z,0.00
2022-08-01T02:43:04.325Z,0.00
2022-08-01T02:44:04.511Z,0.00
2022-08-01T02:45:04.218Z,0.00
2022-08-01T02:46:04.556Z,0.00
2022-08-01T02:47:04.239Z,0.00
2022-08-01T02:48:04.213Z,0.00
2022-08-01T02:49:04.660Z,0.00
2022-08-01T02:50:04.402Z,0.00
2022-08-01T02:51:05.056Z,0.00
2022-08-01T02:52:03.852Z,0.00
2022-08-01T02:53:03.639Z,0.00
2022-08-01T02:54:03.977Z,0.00
2022-08-01T02:55:03.620Z,0.00
2022-08-01T02:56:04.166Z,0.00
2022-08-01T02:57:03.875Z,0.00
2022-08-01T02:58:04.269Z,0.00
2022-08-01T02:59:03.882Z,0.00
2022-08-01T03:00:04.225Z,0.00
2022-08-01T03:01:04.216Z,0.00
2022-08-01T03:02:04.466Z,0.00
2022-08-01T03:03:04.328Z,0.00
2022-08-01T03:04:04.018Z,0.00
2022-08-01T03:05:04.339Z,0.00
2022-08-01T03:06:04.050Z,0.00
2022-08-01T03:07:04.392Z,0.00
2022-08-01T03:08:04.729Z,0.00
2022-08-01T03:09:04.396Z,0.00
2022-08-01T03:10:04.776Z,0.00
2022-08-01T03:11:04.471Z,0.00
2022-08-01T03:12:04.242Z,0.00
2022-08-01T03:13:03.667Z,0.00
2022-08-01T03:14:03.660Z,0.00
2022-08-01T03:15:04.221Z,0.00
2022-08-01T03:16:03.978Z,0.00
2022-08-01T03:17:04.189Z,0.00
2022-08-01T03:18:04.076Z,0.00
2022-08-01T03:19:04.111Z,0.00
2022-08-01T03:20:04.696Z,0.00
2022-08-01T03:21:04.297Z,0.00
2022-08-01T03:22:04.024Z,0.00
2022-08-01T03:23:03.759Z,0.00
2022-08-01T03:24:03.690Z,0.00
2022-08-01T03:25:03.817Z,0.00
2022-08-01T03:26:03.502Z,4.00
2022-08-01T03:27:03.995Z,0.00
2022-08-01T03:28:04.270Z,0.00
2022-08-01T03:29:03.960Z,0.00
2022-08-01T03:30:04.342Z,4.00
2022-08-01T03:31:03.975Z,4.00
2022-08-01T03:32:04.563Z,0.00
2022-08-01T03:33:04.297Z,4.00
2022-08-01T03:34:05.843Z,4.00
2022-08-01T03:35:04.485Z,4.00
2022-08-01T03:36:04.147Z,4.00
2022-08-01T03:37:04.792Z,4.00
2022-08-01T03:38:18.740Z,8.00
2022-08-01T03:39:04.207Z,8.00
2022-08-01T03:40:04.671Z,8.00
2022-08-01T03:41:04.411Z,12.00
2022-08-01T03:42:05.049Z,12.00
2022-08-01T03:43:04.979Z,12.00
2022-08-01T03:44:04.665Z,20.00
2022-08-01T03:45:05.057Z,20.00
2022-08-01T03:46:05.136Z,20.00
2022-08-01T03:47:04.848Z,20.00
2022-08-01T03:48:04.780Z,20.00
2022-08-01T03:49:05.271Z,16.00
2022-08-01T03:50:07.235Z,16.00
2022-08-01T03:51:05.190Z,16.00
2022-08-01T03:52:04.818Z,20.00
2022-08-01T03:53:04.801Z,28.00
2022-08-01T03:54:04.525Z,32.00
2022-08-01T03:55:04.866Z,36.00
2022-08-01T03:56:04.950Z,44.00
2022-08-01T03:57:04.756Z,52.00
2022-08-01T03:58:09.555Z,64.00
2022-08-01T03:59:04.615Z,64.00
2022-08-01T04:00:04.417Z,64.00
2022-08-01T04:01:04.706Z,84.00
2022-08-01T04:02:03.325Z,108.00
2022-08-01T04:03:03.238Z,120.00
2022-08-01T04:04:03.196Z,112.00
2022-08-01T04:05:03.105Z,112.00
2022-08-01T04:06:02.893Z,104.00
2022-08-01T04:07:03.183Z,104.00
2022-08-01T04:08:02.858Z,116.00
2022-08-01T04:09:03.250Z,128.00
2022-08-01T04:10:02.876Z,152.00
2022-08-01T04:11:03.187Z,184.00
2022-08-01T04:12:12.463Z,172.00
2022-08-01T04:13:03.101Z,164.00
2022-08-01T04:14:03.146Z,188.00
2022-08-01T04:15:03.155Z,208.00
2022-08-01T04:16:03.137Z,232.00
2022-08-01T04:17:03.794Z,244.00
2022-08-01T04:18:03.383Z,268.00
2022-08-01T04:19:03.614Z,252.00
2022-08-01T04:20:03.476Z,232.00
2022-08-01T04:21:03.929Z,284.00
2022-08-01T04:22:03.430Z,356.00
2022-08-01T04:23:03.036Z,448.00
2022-08-01T04:24:03.296Z,556.00
2022-08-01T04:25:03.058Z,588.00
2022-08-01T04:26:03.343Z,596.00
2022-08-01T04:27:03.767Z,536.00
2022-08-01T04:28:03.467Z,572.00
2022-08-01T04:29:03.911Z,636.00
2022-08-01T04:30:03.487Z,676.00
2022-08-01T04:31:03.842Z,656.00
2022-08-01T04:32:03.734Z,744.00
2022-08-01T04:33:03.523Z,724.00
2022-08-01T04:34:03.134Z,660.00
2022-08-01T04:35:03.573Z,664.00
2022-08-01T04:36:05.055Z,672.00
2022-08-01T04:37:03.578Z,640.00
2022-08-01T04:38:03.295Z,572.00
2022-08-01T04:39:03.242Z,528.00
2022-08-01T04:40:03.614Z,524.00
2022-08-01T04:41:08.668Z,556.00
2022-08-01T04:42:03.938Z,608.00
2022-08-01T04:43:03.588Z,560.00
2022-08-01T04:44:03.181Z,612.00
2022-08-01T04:45:03.638Z,664.00
2022-08-01T04:46:03.427Z,764.00
2022-08-01T04:47:03.940Z,916.00
2022-08-01T04:48:03.719Z,1056.00
2022-08-01T04:49:03.844Z,1516.00
2022-08-01T04:50:03.635Z,1780.00
2022-08-01T04:51:03.382Z,1900.00
2022-08-01T04:52:04.753Z,2024.00
2022-08-01T04:53:03.895Z,2132.00
2022-08-01T04:54:03.921Z,2132.00
2022-08-01T04:55:03.973Z,1928.00
2022-08-01T04:56:04.467Z,1860.00
2022-08-01T04:57:03.984Z,1824.00
2022-08-01T04:58:03.581Z,1912.00
2022-08-01T04:59:03.920Z,2060.00
2022-08-01T05:00:03.445Z,2120.00
2022-08-01T05:01:03.462Z,2060.00
2022-08-01T05:02:03.714Z,2200.00
2022-08-01T05:03:03.110Z,2216.00
2022-08-01T05:04:03.621Z,2072.00
2022-08-01T05:05:03.318Z,2040.00
2022-08-01T05:06:03.119Z,1860.00
2022-08-01T05:07:02.611Z,1664.00
2022-08-01T05:08:03.116Z,1596.00
2022-08-01T05:09:02.901Z,1592.00
2022-08-01T05:10:02.688Z,1424.00
2022-08-01T05:11:02.940Z,1468.00
2022-08-01T05:12:03.281Z,1660.00
2022-08-01T05:13:02.837Z,1568.00
2022-08-01T05:14:03.376Z,1424.00
2022-08-01T05:15:03.091Z,1652.00
2022-08-01T05:16:03.401Z,1908.00
2022-08-01T05:17:02.501Z,1868.00
2022-08-01T05:18:02.924Z,2156.00
2022-08-01T05:19:02.656Z,2488.00
2022-08-01T05:20:03.003Z,2632.00
2022-08-01T05:21:02.720Z,2520.00
2022-08-01T05:22:03.349Z,2400.00
2022-08-01T05:23:03.359Z,2308.00
2022-08-01T05:24:03.225Z,2712.00
2022-08-01T05:25:03.192Z,2996.00
2022-08-01T05:26:03.728Z,3004.00
2022-08-01T05:27:03.536Z,3112.00
2022-08-01T05:28:03.520Z,3056.00
2022-08-01T05:29:03.464Z,2672.00
2022-08-01T05:30:03.661Z,2060.00
2022-08-01T05:31:04.020Z,1728.00
2022-08-01T05:32:02.982Z,1780.00
2022-08-01T05:33:02.933Z,2068.00
2022-08-01T05:34:03.173Z,2160.00
2022-08-01T05:35:03.149Z,1936.00
2022-08-01T05:36:02.863Z,1668.00
2022-08-01T05:37:03.093Z,1512.00
2022-08-01T05:38:03.311Z,1388.00
2022-08-01T05:39:03.299Z,1464.00
2022-08-01T05:40:03.478Z,1644.00
2022-08-01T05:41:03.120Z,1804.00
2022-08-01T05:42:03.965Z,1672.00
2022-08-01T05:43:03.594Z,1376.00
2022-08-01T05:44:03.392Z,1112.00
2022-08-01T05:45:03.692Z,956.00
2022-08-01T05:46:03.829Z,960.00
2022-08-01T05:47:03.563Z,1092.00
2022-08-01T05:48:03.991Z,1212.00
2022-08-01T05:49:03.804Z,1252.00
2022-08-01T05:50:03.617Z,1096.00
2022-08-01T05:51:04.062Z,1012.00
2022-08-01T05:52:03.868Z,1092.00
2022-08-01T05:53:03.411Z,1300.00
2022-08-01T05:54:03.042Z,1432.00
2022-08-01T05:55:03.334Z,1704.00
2022-08-01T05:56:03.133Z,2080.00
2022-08-01T05:57:03.855Z,2316.00
2022-08-01T05:58:03.730Z,2216.00
2022-08-01T05:59:04.056Z,2016.00
2022-08-01T06:00:03.883Z,1824.00
2022-08-01T06:01:03.799Z,1896.00
2022-08-01T06:02:03.689Z,2132.00
2022-08-01T06:03:03.006Z,2216.00
2022-08-01T06:04:03.659Z,2204.00
2022-08-01T06:05:03.054Z,2240.00
2022-08-01T06:06:03.066Z,2296.00
2022-08-01T06:07:02.526Z,2248.00
2022-08-01T06:08:02.241Z,2156.00
2022-08-01T06:09:02.836Z,2060.00
2022-08-01T06:10:02.913Z,2420.00
2022-08-01T06:11:02.663Z,3212.00
2022-08-01T06:12:03.422Z,4012.00
2022-08-01T06:13:03.091Z,4540.00
2022-08-01T06:14:03.182Z,5344.00
2022-08-01T06:15:03.561Z,6332.00
2022-08-01T06:16:03.113Z,7212.00
2022-08-01T06:17:02.655Z,7000.00
2022-08-01T06:18:02.928Z,6324.00
2022-08-01T06:19:02.768Z,6468.00
2022-08-01T06:20:02.898Z,6456.00
2022-08-01T06:21:02.709Z,6044.00
2022-08-01T06:22:03.112Z,5304.00
2022-08-01T06:23:16.991Z,4552.00
2022-08-01T06:24:02.961Z,3540.00
2022-08-01T06:25:02.870Z,3356.00
2022-08-01T06:26:03.153Z,3940.00
2022-08-01T06:27:03.393Z,4624.00
2022-08-01T06:28:03.531Z,4796.00
2022-08-01T06:29:03.804Z,4972.00
2022-08-01T06:30:03.363Z,5792.00
2022-08-01T06:31:03.797Z,6084.00
2022-08-01T06:32:03.100Z,6716.00
2022-08-01T06:33:02.615Z,7928.00
2022-08-01T06:34:02.508Z,8548.00
2022-08-01T06:35:02.564Z,8392.00
2022-08-01T06:36:02.611Z,8216.00
2022-08-01T06:37:06.256Z,8600.00
2022-08-01T06:38:02.919Z,8952.00
2022-08-01T06:39:03.317Z,8900.00
2022-08-01T06:40:03.137Z,8344.00
2022-08-01T06:41:02.877Z,8820.00
2022-08-01T06:42:03.801Z,10100.00
2022-08-01T06:43:03.533Z,9576.00
2022-08-01T06:44:03.436Z,8280.00
2022-08-01T06:45:03.284Z,8276.00
2022-08-01T06:46:03.711Z,8764.00
2022-08-01T06:47:03.202Z,9128.00
2022-08-01T06:48:03.058Z,9532.00
2022-08-01T06:49:03.364Z,8872.00
2022-08-01T06:50:03.425Z,9300.00
2022-08-01T06:51:03.057Z,9516.00
2022-08-01T06:52:03.272Z,10464.00
2022-08-01T06:53:03.649Z,11004.00
2022-08-01T06:54:03.120Z,9784.00
2022-08-01T06:55:03.716Z,6444.00
2022-08-01T06:56:03.249Z,4756.00
2022-08-01T06:57:03.145Z,4920.00
2022-08-01T06:58:02.909Z,5992.00
2022-08-01T06:59:02.780Z,7484.00
2022-08-01T07:00:02.758Z,8696.00
2022-08-01T07:01:03.331Z,8632.00
2022-08-01T07:02:02.801Z,8148.00
2022-08-01T07:03:02.760Z,8528.00
2022-08-01T07:04:02.588Z,10196.00
2022-08-01T07:05:02.375Z,12576.00
2022-08-01T07:06:02.797Z,13396.00
2022-08-01T07:07:03.152Z,12768.00
2022-08-01T07:08:03.278Z,13904.00
2022-08-01T07:09:08.503Z,13376.00
2022-08-01T07:10:03.106Z,12148.00
2022-08-01T07:11:02.911Z,12128.00
2022-08-01T07:12:04.003Z,12472.00
2022-08-01T07:13:03.054Z,12676.00
2022-08-01T07:14:03.155Z,12836.00
2022-08-01T07:15:03.457Z,13416.00
2022-08-01T07:16:03.291Z,13584.00
2022-08-01T07:17:03.073Z,13168.00
2022-08-01T07:18:02.830Z,12548.00
2022-08-01T07:19:02.691Z,12076.00
2022-08-01T07:20:02.705Z,12360.00
2022-08-01T07:21:02.497Z,12756.00
2022-08-01T07:22:04.089Z,12912.00
2022-08-01T07:23:02.947Z,12164.00
2022-08-01T07:24:02.739Z,10508.00
2022-08-01T07:25:03.002Z,9772.00
2022-08-01T07:26:02.969Z,10064.00
2022-08-01T07:27:25.653Z,10700.00
2022-08-01T07:28:03.263Z,10504.00
2022-08-01T07:29:03.478Z,10248.00
2022-08-01T07:30:02.957Z,10256.00
2022-08-01T07:31:02.895Z,9816.00
2022-08-01T07:32:03.570Z,9340.00
2022-08-01T07:33:02.942Z,9260.00
2022-08-01T07:34:02.819Z,9448.00
2022-08-01T07:35:03.023Z,9504.00
2022-08-01T07:36:02.954Z,9248.00
2022-08-01T07:37:03.464Z,8976.00
2022-08-01T07:38:03.326Z,9140.00
2022-08-01T07:39:03.173Z,9620.00
2022-08-01T07:40:02.886Z,10496.00
2022-08-01T07:41:03.449Z,11836.00
2022-08-01T07:42:07.079Z,13296.00
2022-08-01T07:43:03.345Z,13980.00
2022-08-01T07:44:04.889Z,13044.00
2022-08-01T07:45:03.275Z,11596.00
2022-08-01T07:46:03.126Z,10992.00
2022-08-01T07:47:03.255Z,10988.00
2022-08-01T07:48:03.377Z,11312.00
2022-08-01T07:49:03.939Z,11372.00
2022-08-01T07:50:03.364Z,11352.00
2022-08-01T07:51:03.734Z,10756.00
2022-08-01T07:52:04.372Z,10328.00
2022-08-01T07:53:03.525Z,10168.00
2022-08-01T07:54:03.386Z,9836.00
2022-08-01T07:55:03.027Z,9604.00
2022-08-01T07:56:02.916Z,9512.00
2022-08-01T07:57:04.013Z,10144.00
2022-08-01T07:58:03.529Z,11524.00
2022-08-01T07:59:04.058Z,12200.00
2022-08-01T08:00:03.897Z,12168.00
2022-08-01T08:01:03.562Z,13664.00
2022-08-01T08:02:03.208Z,20512.00
2022-08-01T08:03:03.226Z,13224.00
2022-08-01T08:04:03.477Z,12984.00
2022-08-01T08:05:03.199Z,12532.00
2022-08-01T08:06:03.006Z,12780.00
2022-08-01T08:07:02.821Z,12796.00
2022-08-01T08:08:03.071Z,12944.00
2022-08-01T08:09:02.926Z,13276.00
2022-08-01T08:10:03.160Z,13220.00
2022-08-01T08:11:03.030Z,12368.00
2022-08-01T08:12:03.220Z,11472.00
2022-08-01T08:13:03.373Z,10988.00
2022-08-01T08:14:03.247Z,10572.00
2022-08-01T08:15:03.335Z,9896.00
2022-08-01T08:16:03.151Z,9360.00
2022-08-01T08:17:03.466Z,9056.00
2022-08-01T08:18:03.264Z,8316.00
2022-08-01T08:19:03.226Z,7724.00
2022-08-01T08:20:03.619Z,8312.00
2022-08-01T08:21:06.662Z,9728.00
2022-08-01T08:22:03.505Z,11176.00
2022-08-01T08:23:03.700Z,12196.00
2022-08-01T08:24:03.512Z,13284.00
2022-08-01T08:25:03.481Z,14548.00
2022-08-01T08:26:03.372Z,15360.00
2022-08-01T08:27:02.939Z,16384.00
2022-08-01T08:28:03.305Z,16352.00
2022-08-01T08:29:03.387Z,14796.00
2022-08-01T08:30:03.287Z,13384.00
2022-08-01T08:31:02.875Z,12700.00
2022-08-01T08:32:03.260Z,12488.00
2022-08-01T08:33:03.857Z,12372.00
2022-08-01T08:34:03.423Z,11812.00
2022-08-01T08:35:03.932Z,11420.00
2022-08-01T08:36:03.673Z,11396.00
2022-08-01T08:37:03.151Z,11716.00
2022-08-01T08:38:03.633Z,12660.00
2022-08-01T08:39:03.079Z,13508.00
2022-08-01T08:40:03.536Z,14256.00
2022-08-01T08:41:03.361Z,14772.00
2022-08-01T08:42:02.892Z,15776.00
2022-08-01T08:43:02.730Z,16096.00
2022-08-01T08:44:02.754Z,15968.00
2022-08-01T08:45:03.039Z,15744.00
2022-08-01T08:46:02.825Z,15552.00
2022-08-01T08:47:03.271Z,15316.00
2022-08-01T08:48:03.063Z,16256.00
2022-08-01T08:49:03.380Z,16800.00
2022-08-01T08:50:03.084Z,17024.00
2022-08-01T08:51:03.504Z,20736.00
2022-08-01T08:52:02.745Z,13932.00
2022-08-01T08:53:03.196Z,12008.00
2022-08-01T08:54:03.238Z,10356.00
2022-08-01T08:55:02.927Z,10032.00
2022-08-01T08:56:02.924Z,11176.00
2022-08-01T08:57:03.417Z,12808.00
2022-08-01T08:58:03.197Z,14528.00
2022-08-01T08:59:03.651Z,15016.00
2022-08-01T09:00:03.416Z,13500.00
2022-08-01T09:01:03.219Z,11328.00
2022-08-01T09:02:03.621Z,9296.00
2022-08-01T09:03:03.474Z,7972.00
2022-08-01T09:04:03.820Z,7548.00
2022-08-01T09:05:03.541Z,7812.00
2022-08-01T09:06:03.985Z,8316.00
2022-08-01T09:07:03.730Z,9144.00
2022-08-01T09:08:03.490Z,9784.00
2022-08-01T09:09:03.969Z,9896.00
2022-08-01T09:10:03.565Z,10036.00
2022-08-01T09:11:03.994Z,10452.00
2022-08-01T09:12:03.519Z,11276.00
2022-08-01T09:13:03.285Z,12268.00
2022-08-01T09:14:03.758Z,13280.00
2022-08-01T09:15:03.492Z,13996.00
2022-08-01T09:16:03.239Z,14608.00
2022-08-01T09:17:03.766Z,15744.00
2022-08-01T09:18:03.533Z,16544.00
2022-08-01T09:19:03.402Z,17888.00
2022-08-01T09:20:03.442Z,19072.00
2022-08-01T09:21:03.708Z,20352.00
2022-08-01T09:22:04.523Z,21984.00
2022-08-01T09:23:03.780Z,23968.00
2022-08-01T09:24:04.467Z,25792.00
2022-08-01T09:25:04.136Z,26016.00
2022-08-01T09:26:04.450Z,26848.00
2022-08-01T09:27:04.295Z,28928.00
2022-08-01T09:28:04.467Z,21504.00
2022-08-01T09:29:04.435Z,20416.00
2022-08-01T09:30:03.952Z,19200.00
2022-08-01T09:31:04.052Z,18624.00
2022-08-01T09:32:03.617Z,18208.00
2022-08-01T09:33:06.330Z,17504.00
2022-08-01T09:34:03.960Z,17792.00
2022-08-01T09:35:03.624Z,18752.00
2022-08-01T09:36:03.592Z,20928.00
2022-08-01T09:37:04.025Z,20544.00
2022-08-01T09:38:03.765Z,22752.00
2022-08-01T09:39:04.200Z,22304.00
2022-08-01T09:40:03.998Z,22048.00
2022-08-01T09:41:03.720Z,22784.00
2022-08-01T09:42:04.130Z,23808.00
2022-08-01T09:43:03.846Z,22560.00
2022-08-01T09:44:04.187Z,21664.00
2022-08-01T09:45:03.759Z,23616.00
2022-08-01T09:46:04.351Z,47584.00
2022-08-01T09:47:07.723Z,34880.00
2022-08-01T09:48:03.313Z,24320.00
2022-08-01T09:49:07.374Z,40192.00
2022-08-01T09:50:07.376Z,39392.00
2022-08-01T09:51:09.274Z,46144.00
2022-08-01T09:52:03.844Z,41536.00
2022-08-01T09:53:03.531Z,42944.00
2022-08-01T09:54:04.003Z,42688.00
2022-08-01T09:55:03.866Z,43552.00
2022-08-01T09:56:03.978Z,43296.00
2022-08-01T09:57:04.924Z,44416.00
2022-08-01T09:58:04.156Z,44512.00
2022-08-01T09:59:04.685Z,43968.00
2022-08-01T10:00:04.235Z,27040.00
2022-08-01T10:01:04.134Z,24192.00
2022-08-01T10:02:03.724Z,40576.00
2022-08-01T10:03:10.316Z,40096.00
2022-08-01T10:04:03.566Z,39040.00
2022-08-01T10:05:07.647Z,35040.00
2022-08-01T10:06:03.670Z,35008.00
2022-08-01T10:07:03.390Z,34240.00
2022-08-01T10:08:03.180Z,35360.00
2022-08-01T10:09:02.973Z,32960.00
2022-08-01T10:10:03.310Z,31424.00
2022-08-01T10:11:03.128Z,26560.00
2022-08-01T10:12:03.682Z,32704.00
2022-08-01T10:13:03.533Z,25792.00
2022-08-01T10:14:03.748Z,19520.00
2022-08-01T10:15:03.395Z,19232.00
2022-08-01T10:16:03.811Z,21536.00
2022-08-01T10:17:05.210Z,19392.00
2022-08-01T10:18:03.623Z,20128.00
2022-08-01T10:19:04.065Z,19648.00
2022-08-01T10:20:03.866Z,19232.00
2022-08-01T10:21:03.797Z,18400.00
2022-08-01T10:22:03.877Z,19136.00
2022-08-01T10:23:06.386Z,19200.00
2022-08-01T10:24:03.555Z,19520.00
2022-08-01T10:25:03.329Z,19968.00
2022-08-01T10:26:03.511Z,20768.00
2022-08-01T10:27:09.546Z,21824.00
2022-08-01T10:28:03.787Z,22784.00
2022-08-01T10:29:04.078Z,23168.00
2022-08-01T10:30:08.476Z,22528.00
2022-08-01T10:31:03.664Z,23616.00
2022-08-01T10:32:05.586Z,27264.00
2022-08-01T10:33:04.031Z,30016.00
2022-08-01T10:34:04.052Z,31136.00
2022-08-01T10:35:06.632Z,29024.00
2022-08-01T10:36:03.750Z,29024.00
2022-08-01T10:37:03.254Z,30944.00
2022-08-01T10:38:02.965Z,26784.00
2022-08-01T10:39:03.037Z,26048.00
2022-08-01T10:40:28.891Z,27104.00
2022-08-01T10:41:06.441Z,26240.00
2022-08-01T10:42:05.870Z,30528.00
2022-08-01T10:43:03.287Z,21792.00
2022-08-01T10:44:03.081Z,20352.00
2022-08-01T10:45:03.223Z,19776.00
2022-08-01T10:46:04.023Z,19136.00
2022-08-01T10:47:03.884Z,19264.00
2022-08-01T10:48:04.277Z,20960.00
2022-08-01T10:49:04.119Z,27488.00
2022-08-01T10:50:04.536Z,23168.00
2022-08-01T10:51:04.386Z,25056.00
2022-08-01T10:52:04.151Z,38528.00
2022-08-01T10:53:08.900Z,35648.00
2022-08-01T10:54:03.779Z,25120.00
2022-08-01T10:55:03.477Z,27040.00
2022-08-01T10:56:03.498Z,29088.00
2022-08-01T10:57:03.816Z,20640.00
2022-08-01T10:58:04.578Z,42752.00
2022-08-01T10:59:06.292Z,21472.00
2022-08-01T11:00:04.517Z,23200.00
2022-08-01T11:01:04.426Z,24320.00
2022-08-01T11:02:04.381Z,24096.00
2022-08-01T11:03:03.161Z,25440.00
2022-08-01T11:04:04.070Z,24992.00
2022-08-01T11:05:04.461Z,24224.00
2022-08-01T11:06:03.659Z,26592.00
2022-08-01T11:07:03.913Z,23840.00
2022-08-01T11:08:03.596Z,22624.00
2022-08-01T11:09:04.020Z,24384.00
2022-08-01T11:10:03.740Z,25248.00
2022-08-01T11:11:03.027Z,23552.00
2022-08-01T11:12:06.141Z,22400.00
2022-08-01T11:13:04.032Z,20672.00
2022-08-01T11:14:03.588Z,20704.00
2022-08-01T11:15:03.627Z,20320.00
2022-08-01T11:16:06.100Z,20000.00
2022-08-01T11:17:03.860Z,19648.00
2022-08-01T11:18:02.739Z,20864.00
2022-08-01T11:19:02.889Z,25440.00
2022-08-01T11:20:02.963Z,25664.00
2022-08-01T11:21:57.267Z,27840.00
2022-08-01T11:22:02.892Z,28032.00
2022-08-01T11:23:03.708Z,23840.00
2022-08-01T11:24:03.446Z,37152.00
2022-08-01T11:25:03.067Z,23232.00
2022-08-01T11:26:10.224Z,19584.00
2022-08-01T11:27:03.065Z,20544.00
2022-08-01T11:28:02.998Z,24736.00
2022-08-01T11:29:19.521Z,48704.00
2022-08-01T11:30:03.355Z,52416.00
2022-08-01T11:31:03.194Z,48000.00
2022-08-01T11:32:03.209Z,39264.00
2022-08-01T11:33:10.568Z,24192.00
2022-08-01T11:34:04.198Z,19552.00
2022-08-01T11:35:04.026Z,18048.00
2022-08-01T11:36:03.846Z,16320.00
2022-08-01T11:37:03.941Z,15328.00
2022-08-01T11:38:04.067Z,16064.00
2022-08-01T11:39:04.194Z,17888.00
2022-08-01T11:40:04.399Z,20448.00
2022-08-01T11:41:04.180Z,20640.00
2022-08-01T11:42:04.175Z,19136.00
2022-08-01T11:43:04.046Z,18688.00
2022-08-01T11:44:04.192Z,20128.00
2022-08-01T11:45:04.693Z,18560.00
2022-08-01T11:46:04.123Z,18176.00
2022-08-01T11:47:08.997Z,18848.00
2022-08-01T11:48:03.386Z,21408.00
2022-08-01T11:49:03.889Z,19904.00
2022-08-01T11:50:04.018Z,19648.00
2022-08-01T11:51:03.748Z,19040.00
2022-08-01T11:52:04.285Z,17184.00
2022-08-01T11:53:03.846Z,16672.00
2022-08-01T11:54:04.142Z,14500.00
2022-08-01T11:55:03.796Z,13200.00
2022-08-01T11:56:04.018Z,13016.00
2022-08-01T11:57:04.014Z,13208.00
2022-08-01T11:58:04.417Z,13940.00
2022-08-01T11:59:04.345Z,15320.00
2022-08-01T12:00:08.495Z,17088.00
2022-08-01T12:01:04.413Z,18624.00
2022-08-01T12:02:04.303Z,23552.00
2022-08-01T12:03:04.598Z,25728.00
2022-08-01T12:04:03.752Z,26144.00
2022-08-01T12:05:05.010Z,25440.00
2022-08-01T12:06:04.226Z,24544.00
2022-08-01T12:07:04.455Z,19168.00
2022-08-01T12:08:04.447Z,16416.00
2022-08-01T12:09:04.045Z,14052.00
2022-08-01T12:10:04.203Z,12096.00
2022-08-01T12:11:04.242Z,10876.00
2022-08-01T12:12:03.942Z,10696.00
2022-08-01T12:13:04.038Z,11312.00
2022-08-01T12:14:03.666Z,12844.00
2022-08-01T12:15:03.457Z,14780.00
2022-08-01T12:16:04.007Z,16992.00
2022-08-01T12:17:04.001Z,19520.00
2022-08-01T12:18:03.586Z,19616.00
2022-08-01T12:19:03.223Z,17792.00